sensor_id;sensor_type;location;lat;lon;timestamp;P1;durP1;ratioP1;P2;durP2;ratioP2
3217;SDS011;1621;49.702;8.618;2024-03-07T00:01:36;35.80;;;27.77;;
3217;SDS011;1621;49.702;8.618;2024-03-07T00:04:04;40.67;;;29.17;;
3217;SDS011;1621;49.702;8.618;2024-03-07T00:06:31;40.53;;;28.73;;
3217;SDS011;1621;49.702;8.618;2024-03-07T00:08:58;36.80;;;27.37;;
3217;SDS011;1621;49.702;8.618;2024-03-07T00:11:24;37.67;;;27.90;;
3217;SDS011;1621;49.702;8.618;2024-03-07T00:13:50;38.10;;;28.60;;
3217;SDS011;1621;49.702;8.618;2024-03-07T00:16:16;38.13;;;26.77;;
3217;SDS011;1621;49.702;8.618;2024-03-07T00:18:43;33.50;;;26.20;;
3217;SDS011;1621;49.702;8.618;2024-03-07T00:21:10;42.43;;;27.97;;
3217;SDS011;1621;49.702;8.618;2024-03-07T00:23:37;42.00;;;28.20;;
3217;SDS011;1621;49.702;8.618;2024-03-07T00:26:03;38.03;;;28.87;;
3217;SDS011;1621;49.702;8.618;2024-03-07T00:28:30;35.50;;;26.97;;
3217;SDS011;1621;49.702;8.618;2024-03-07T00:31:00;38.97;;;28.70;;
3217;SDS011;1621;49.702;8.618;2024-03-07T00:33:26;34.17;;;26.90;;
3217;SDS011;1621;49.702;8.618;2024-03-07T00:35:53;37.90;;;25.10;;
3217;SDS011;1621;49.702;8.618;2024-03-07T00:38:21;39.00;;;25.57;;
3217;SDS011;1621;49.702;8.618;2024-03-07T00:40:48;31.03;;;25.40;;
3217;SDS011;1621;49.702;8.618;2024-03-07T00:43:14;35.20;;;25.40;;
3217;SDS011;1621;49.702;8.618;2024-03-07T00:45:41;32.60;;;25.47;;
3217;SDS011;1621;49.702;8.618;2024-03-07T00:48:07;38.23;;;25.37;;
3217;SDS011;1621;49.702;8.618;2024-03-07T00:50:34;35.30;;;26.73;;
3217;SDS011;1621;49.702;8.618;2024-03-07T00:53:00;34.60;;;25.57;;
3217;SDS011;1621;49.702;8.618;2024-03-07T00:55:28;31.57;;;24.00;;
3217;SDS011;1621;49.702;8.618;2024-03-07T00:57:54;33.43;;;24.27;;
3217;SDS011;1621;49.702;8.618;2024-03-07T01:00:21;33.47;;;26.33;;
3217;SDS011;1621;49.702;8.618;2024-03-07T01:02:47;34.97;;;23.97;;
3217;SDS011;1621;49.702;8.618;2024-03-07T01:05:13;31.13;;;23.50;;
3217;SDS011;1621;49.702;8.618;2024-03-07T01:07:40;30.13;;;23.30;;
3217;SDS011;1621;49.702;8.618;2024-03-07T01:10:08;34.13;;;25.87;;
3217;SDS011;1621;49.702;8.618;2024-03-07T01:12:35;31.73;;;23.90;;
3217;SDS011;1621;49.702;8.618;2024-03-07T01:15:02;28.90;;;22.70;;
3217;SDS011;1621;49.702;8.618;2024-03-07T01:17:29;29.80;;;23.30;;
3217;SDS011;1621;49.702;8.618;2024-03-07T01:19:55;33.10;;;24.80;;
3217;SDS011;1621;49.702;8.618;2024-03-07T01:22:23;33.03;;;24.33;;
3217;SDS011;1621;49.702;8.618;2024-03-07T01:24:49;33.63;;;24.87;;
3217;SDS011;1621;49.702;8.618;2024-03-07T01:27:16;32.90;;;23.70;;
3217;SDS011;1621;49.702;8.618;2024-03-07T01:29:44;31.93;;;23.60;;
3217;SDS011;1621;49.702;8.618;2024-03-07T01:32:10;31.40;;;23.23;;
3217;SDS011;1621;49.702;8.618;2024-03-07T01:34:37;32.17;;;23.73;;
3217;SDS011;1621;49.702;8.618;2024-03-07T01:37:03;38.20;;;25.50;;
3217;SDS011;1621;49.702;8.618;2024-03-07T01:39:29;36.50;;;24.87;;
3217;SDS011;1621;49.702;8.618;2024-03-07T01:41:56;31.47;;;24.50;;
3217;SDS011;1621;49.702;8.618;2024-03-07T01:44:22;34.97;;;26.83;;
3217;SDS011;1621;49.702;8.618;2024-03-07T01:46:50;35.00;;;26.43;;
3217;SDS011;1621;49.702;8.618;2024-03-07T01:49:16;35.93;;;26.40;;
3217;SDS011;1621;49.702;8.618;2024-03-07T01:51:42;34.57;;;25.67;;
3217;SDS011;1621;49.702;8.618;2024-03-07T01:54:09;39.70;;;28.83;;
3217;SDS011;1621;49.702;8.618;2024-03-07T01:56:36;37.30;;;28.30;;
3217;SDS011;1621;49.702;8.618;2024-03-07T01:59:03;36.10;;;27.97;;
3217;SDS011;1621;49.702;8.618;2024-03-07T02:01:30;38.73;;;27.40;;
3217;SDS011;1621;49.702;8.618;2024-03-07T02:03:58;41.67;;;30.57;;
3217;SDS011;1621;49.702;8.618;2024-03-07T02:06:24;32.03;;;25.27;;
3217;SDS011;1621;49.702;8.618;2024-03-07T02:08:51;31.53;;;23.60;;
3217;SDS011;1621;49.702;8.618;2024-03-07T02:11:18;33.00;;;25.63;;
3217;SDS011;1621;49.702;8.618;2024-03-07T02:13:44;35.77;;;25.87;;
3217;SDS011;1621;49.702;8.618;2024-03-07T02:16:11;31.00;;;24.33;;
3217;SDS011;1621;49.702;8.618;2024-03-07T02:18:38;33.83;;;25.20;;
3217;SDS011;1621;49.702;8.618;2024-03-07T02:21:09;34.17;;;24.80;;
3217;SDS011;1621;49.702;8.618;2024-03-07T02:23:36;33.03;;;24.33;;
3217;SDS011;1621;49.702;8.618;2024-03-07T02:26:03;32.10;;;23.87;;
3217;SDS011;1621;49.702;8.618;2024-03-07T02:28:29;31.10;;;23.63;;
3217;SDS011;1621;49.702;8.618;2024-03-07T02:30:55;29.70;;;23.87;;
3217;SDS011;1621;49.702;8.618;2024-03-07T02:33:22;29.80;;;22.77;;
3217;SDS011;1621;49.702;8.618;2024-03-07T02:35:48;31.13;;;23.80;;
3217;SDS011;1621;49.702;8.618;2024-03-07T02:38:16;28.90;;;22.80;;
3217;SDS011;1621;49.702;8.618;2024-03-07T02:40:42;29.00;;;22.80;;
3217;SDS011;1621;49.702;8.618;2024-03-07T02:43:09;31.30;;;23.23;;
3217;SDS011;1621;49.702;8.618;2024-03-07T02:45:35;30.63;;;23.30;;
3217;SDS011;1621;49.702;8.618;2024-03-07T02:48:01;30.53;;;22.90;;
3217;SDS011;1621;49.702;8.618;2024-03-07T02:50:29;33.20;;;23.93;;
3217;SDS011;1621;49.702;8.618;2024-03-07T02:52:55;32.00;;;22.23;;
3217;SDS011;1621;49.702;8.618;2024-03-07T02:55:23;30.77;;;23.27;;
3217;SDS011;1621;49.702;8.618;2024-03-07T02:57:49;31.23;;;22.80;;
3217;SDS011;1621;49.702;8.618;2024-03-07T03:00:16;30.80;;;23.17;;
3217;SDS011;1621;49.702;8.618;2024-03-07T03:02:51;34.47;;;24.20;;
3217;SDS011;1621;49.702;8.618;2024-03-07T03:05:18;30.60;;;22.63;;
3217;SDS011;1621;49.702;8.618;2024-03-07T03:07:44;34.33;;;23.40;;
3217;SDS011;1621;49.702;8.618;2024-03-07T03:10:17;29.87;;;22.70;;
3217;SDS011;1621;49.702;8.618;2024-03-07T03:12:45;31.37;;;22.90;;
3217;SDS011;1621;49.702;8.618;2024-03-07T03:15:12;31.37;;;23.23;;
3217;SDS011;1621;49.702;8.618;2024-03-07T03:17:40;29.17;;;21.93;;
3217;SDS011;1621;49.702;8.618;2024-03-07T03:20:06;30.10;;;24.33;;
3217;SDS011;1621;49.702;8.618;2024-03-07T03:22:40;31.70;;;23.40;;
3217;SDS011;1621;49.702;8.618;2024-03-07T03:25:07;31.57;;;22.70;;
3217;SDS011;1621;49.702;8.618;2024-03-07T03:27:34;30.43;;;23.33;;
3217;SDS011;1621;49.702;8.618;2024-03-07T03:30:01;30.43;;;23.70;;
3217;SDS011;1621;49.702;8.618;2024-03-07T03:32:29;34.37;;;24.63;;
3217;SDS011;1621;49.702;8.618;2024-03-07T03:34:55;32.20;;;23.10;;
3217;SDS011;1621;49.702;8.618;2024-03-07T03:37:21;31.43;;;22.23;;
3217;SDS011;1621;49.702;8.618;2024-03-07T03:39:48;32.30;;;24.97;;
3217;SDS011;1621;49.702;8.618;2024-03-07T03:42:14;29.20;;;23.67;;
3217;SDS011;1621;49.702;8.618;2024-03-07T03:44:41;30.80;;;24.37;;
3217;SDS011;1621;49.702;8.618;2024-03-07T03:47:08;29.67;;;22.43;;
3217;SDS011;1621;49.702;8.618;2024-03-07T03:49:35;29.47;;;22.60;;
3217;SDS011;1621;49.702;8.618;2024-03-07T03:52:02;29.53;;;23.00;;
3217;SDS011;1621;49.702;8.618;2024-03-07T03:54:28;31.20;;;23.90;;
3217;SDS011;1621;49.702;8.618;2024-03-07T03:56:54;33.17;;;25.17;;
3217;SDS011;1621;49.702;8.618;2024-03-07T03:59:21;29.60;;;23.50;;
3217;SDS011;1621;49.702;8.618;2024-03-07T04:01:47;27.30;;;22.60;;
3217;SDS011;1621;49.702;8.618;2024-03-07T04:04:15;30.03;;;22.80;;
3217;SDS011;1621;49.702;8.618;2024-03-07T04:06:41;27.60;;;22.07;;
3217;SDS011;1621;49.702;8.618;2024-03-07T04:09:08;30.10;;;22.20;;
3217;SDS011;1621;49.702;8.618;2024-03-07T04:11:34;32.20;;;24.87;;
3217;SDS011;1621;49.702;8.618;2024-03-07T04:14:01;31.37;;;22.93;;
3217;SDS011;1621;49.702;8.618;2024-03-07T04:16:28;32.53;;;24.17;;
3217;SDS011;1621;49.702;8.618;2024-03-07T04:18:54;31.20;;;23.83;;
3217;SDS011;1621;49.702;8.618;2024-03-07T04:21:21;29.13;;;22.50;;
3217;SDS011;1621;49.702;8.618;2024-03-07T04:23:50;28.07;;;21.73;;
3217;SDS011;1621;49.702;8.618;2024-03-07T04:26:17;35.47;;;24.90;;
3217;SDS011;1621;49.702;8.618;2024-03-07T04:28:43;31.10;;;23.80;;
3217;SDS011;1621;49.702;8.618;2024-03-07T04:31:10;30.80;;;21.50;;
3217;SDS011;1621;49.702;8.618;2024-03-07T04:33:36;26.97;;;21.20;;
3217;SDS011;1621;49.702;8.618;2024-03-07T04:36:02;30.23;;;23.43;;
3217;SDS011;1621;49.702;8.618;2024-03-07T04:38:30;33.57;;;22.37;;
3217;SDS011;1621;49.702;8.618;2024-03-07T04:40:56;30.77;;;20.60;;
3217;SDS011;1621;49.702;8.618;2024-03-07T04:43:23;31.83;;;23.83;;
3217;SDS011;1621;49.702;8.618;2024-03-07T04:45:51;34.30;;;22.77;;
3217;SDS011;1621;49.702;8.618;2024-03-07T04:48:17;33.53;;;22.97;;
3217;SDS011;1621;49.702;8.618;2024-03-07T04:50:43;32.30;;;20.70;;
3217;SDS011;1621;49.702;8.618;2024-03-07T04:53:09;28.97;;;20.77;;
3217;SDS011;1621;49.702;8.618;2024-03-07T04:55:37;33.70;;;24.90;;
3217;SDS011;1621;49.702;8.618;2024-03-07T04:58:03;32.23;;;21.80;;
3217;SDS011;1621;49.702;8.618;2024-03-07T05:00:30;31.53;;;20.83;;
3217;SDS011;1621;49.702;8.618;2024-03-07T05:02:56;29.13;;;20.60;;
3217;SDS011;1621;49.702;8.618;2024-03-07T05:05:22;37.37;;;24.13;;
3217;SDS011;1621;49.702;8.618;2024-03-07T05:07:50;32.20;;;23.40;;
3217;SDS011;1621;49.702;8.618;2024-03-07T05:10:17;32.30;;;20.93;;
3217;SDS011;1621;49.702;8.618;2024-03-07T05:12:45;33.57;;;21.37;;
3217;SDS011;1621;49.702;8.618;2024-03-07T05:15:11;31.03;;;21.90;;
3217;SDS011;1621;49.702;8.618;2024-03-07T05:17:38;34.27;;;24.27;;
3217;SDS011;1621;49.702;8.618;2024-03-07T05:20:07;32.50;;;22.37;;
3217;SDS011;1621;49.702;8.618;2024-03-07T05:22:35;32.73;;;20.60;;
3217;SDS011;1621;49.702;8.618;2024-03-07T05:25:04;29.97;;;23.60;;
3217;SDS011;1621;49.702;8.618;2024-03-07T05:27:30;31.00;;;21.10;;
3217;SDS011;1621;49.702;8.618;2024-03-07T05:29:59;32.00;;;22.80;;
3217;SDS011;1621;49.702;8.618;2024-03-07T05:32:26;31.03;;;23.10;;
3217;SDS011;1621;49.702;8.618;2024-03-07T05:34:52;32.00;;;21.03;;
3217;SDS011;1621;49.702;8.618;2024-03-07T05:37:19;31.20;;;22.33;;
3217;SDS011;1621;49.702;8.618;2024-03-07T05:39:46;34.13;;;22.60;;
3217;SDS011;1621;49.702;8.618;2024-03-07T05:42:13;34.60;;;24.13;;
3217;SDS011;1621;49.702;8.618;2024-03-07T05:44:39;30.47;;;23.17;;
3217;SDS011;1621;49.702;8.618;2024-03-07T05:47:08;30.17;;;20.00;;
3217;SDS011;1621;49.702;8.618;2024-03-07T05:49:34;29.50;;;22.63;;
3217;SDS011;1621;49.702;8.618;2024-03-07T05:52:01;31.77;;;22.07;;
3217;SDS011;1621;49.702;8.618;2024-03-07T05:54:28;32.40;;;24.10;;
3217;SDS011;1621;49.702;8.618;2024-03-07T05:56:54;32.37;;;23.47;;
3217;SDS011;1621;49.702;8.618;2024-03-07T05:59:21;40.10;;;23.33;;
3217;SDS011;1621;49.702;8.618;2024-03-07T06:01:47;34.97;;;23.40;;
3217;SDS011;1621;49.702;8.618;2024-03-07T06:04:17;30.60;;;22.93;;
3217;SDS011;1621;49.702;8.618;2024-03-07T06:06:44;33.37;;;21.40;;
3217;SDS011;1621;49.702;8.618;2024-03-07T06:09:12;30.33;;;22.83;;
3217;SDS011;1621;49.702;8.618;2024-03-07T06:11:39;35.00;;;22.37;;
3217;SDS011;1621;49.702;8.618;2024-03-07T06:14:07;34.70;;;22.90;;
3217;SDS011;1621;49.702;8.618;2024-03-07T06:16:35;35.40;;;21.73;;
3217;SDS011;1621;49.702;8.618;2024-03-07T06:19:02;33.67;;;25.13;;
3217;SDS011;1621;49.702;8.618;2024-03-07T06:21:30;33.30;;;24.10;;
3217;SDS011;1621;49.702;8.618;2024-03-07T06:23:56;39.33;;;24.50;;
3217;SDS011;1621;49.702;8.618;2024-03-07T06:26:25;32.07;;;24.50;;
3217;SDS011;1621;49.702;8.618;2024-03-07T06:29:02;33.00;;;23.93;;
3217;SDS011;1621;49.702;8.618;2024-03-07T06:31:30;31.87;;;25.10;;
3217;SDS011;1621;49.702;8.618;2024-03-07T06:33:56;34.40;;;25.67;;
3217;SDS011;1621;49.702;8.618;2024-03-07T06:36:22;32.97;;;22.30;;
3217;SDS011;1621;49.702;8.618;2024-03-07T06:38:51;33.40;;;22.30;;
3217;SDS011;1621;49.702;8.618;2024-03-07T06:41:17;34.30;;;22.20;;
3217;SDS011;1621;49.702;8.618;2024-03-07T06:43:43;32.77;;;25.10;;
3217;SDS011;1621;49.702;8.618;2024-03-07T06:46:10;30.80;;;22.07;;
3217;SDS011;1621;49.702;8.618;2024-03-07T06:48:37;34.10;;;22.40;;
3217;SDS011;1621;49.702;8.618;2024-03-07T06:51:05;33.50;;;24.10;;
3217;SDS011;1621;49.702;8.618;2024-03-07T06:53:31;31.60;;;22.33;;
3217;SDS011;1621;49.702;8.618;2024-03-07T06:55:59;31.57;;;23.93;;
3217;SDS011;1621;49.702;8.618;2024-03-07T06:58:26;31.03;;;21.50;;
3217;SDS011;1621;49.702;8.618;2024-03-07T07:00:52;33.33;;;22.67;;
3217;SDS011;1621;49.702;8.618;2024-03-07T07:03:19;34.87;;;23.97;;
3217;SDS011;1621;49.702;8.618;2024-03-07T07:05:45;31.60;;;19.90;;
3217;SDS011;1621;49.702;8.618;2024-03-07T07:08:12;37.00;;;23.80;;
3217;SDS011;1621;49.702;8.618;2024-03-07T07:10:39;31.27;;;21.17;;
3217;SDS011;1621;49.702;8.618;2024-03-07T07:13:06;29.50;;;21.30;;
3217;SDS011;1621;49.702;8.618;2024-03-07T07:15:33;30.50;;;21.10;;
3217;SDS011;1621;49.702;8.618;2024-03-07T07:18:01;27.90;;;22.00;;
3217;SDS011;1621;49.702;8.618;2024-03-07T07:20:28;34.20;;;21.70;;
3217;SDS011;1621;49.702;8.618;2024-03-07T07:22:55;31.53;;;21.63;;
3217;SDS011;1621;49.702;8.618;2024-03-07T07:25:23;27.70;;;22.10;;
3217;SDS011;1621;49.702;8.618;2024-03-07T07:27:52;30.23;;;22.43;;
3217;SDS011;1621;49.702;8.618;2024-03-07T07:30:20;29.87;;;20.47;;
3217;SDS011;1621;49.702;8.618;2024-03-07T07:32:48;29.63;;;21.33;;
3217;SDS011;1621;49.702;8.618;2024-03-07T07:35:14;34.33;;;21.63;;
3217;SDS011;1621;49.702;8.618;2024-03-07T07:37:41;28.90;;;19.37;;
3217;SDS011;1621;49.702;8.618;2024-03-07T07:40:07;30.03;;;20.93;;
3217;SDS011;1621;49.702;8.618;2024-03-07T07:42:34;30.10;;;21.10;;
3217;SDS011;1621;49.702;8.618;2024-03-07T07:45:03;27.10;;;20.47;;
3217;SDS011;1621;49.702;8.618;2024-03-07T07:47:32;29.00;;;20.90;;
3217;SDS011;1621;49.702;8.618;2024-03-07T07:50:02;29.50;;;21.73;;
3217;SDS011;1621;49.702;8.618;2024-03-07T07:52:32;26.23;;;20.47;;
3217;SDS011;1621;49.702;8.618;2024-03-07T07:55:00;28.20;;;21.67;;
3217;SDS011;1621;49.702;8.618;2024-03-07T07:57:26;29.93;;;19.10;;
3217;SDS011;1621;49.702;8.618;2024-03-07T07:59:54;26.00;;;18.03;;
3217;SDS011;1621;49.702;8.618;2024-03-07T08:02:20;29.77;;;19.93;;
3217;SDS011;1621;49.702;8.618;2024-03-07T08:04:48;25.07;;;18.97;;
3217;SDS011;1621;49.702;8.618;2024-03-07T08:07:15;25.37;;;17.37;;
3217;SDS011;1621;49.702;8.618;2024-03-07T08:09:42;26.93;;;19.93;;
3217;SDS011;1621;49.702;8.618;2024-03-07T08:12:09;26.10;;;18.20;;
3217;SDS011;1621;49.702;8.618;2024-03-07T08:14:37;21.67;;;16.73;;
3217;SDS011;1621;49.702;8.618;2024-03-07T08:17:03;23.00;;;17.03;;
3217;SDS011;1621;49.702;8.618;2024-03-07T08:19:31;22.23;;;16.70;;
3217;SDS011;1621;49.702;8.618;2024-03-07T08:21:59;23.73;;;17.33;;
3217;SDS011;1621;49.702;8.618;2024-03-07T08:24:25;21.90;;;16.77;;
3217;SDS011;1621;49.702;8.618;2024-03-07T08:26:51;26.60;;;17.00;;
3217;SDS011;1621;49.702;8.618;2024-03-07T08:29:18;21.97;;;15.33;;
3217;SDS011;1621;49.702;8.618;2024-03-07T08:31:44;20.67;;;16.20;;
3217;SDS011;1621;49.702;8.618;2024-03-07T08:34:11;21.57;;;15.10;;
3217;SDS011;1621;49.702;8.618;2024-03-07T08:36:38;19.70;;;15.07;;
3217;SDS011;1621;49.702;8.618;2024-03-07T08:39:06;20.33;;;16.00;;
3217;SDS011;1621;49.702;8.618;2024-03-07T08:41:36;20.27;;;14.77;;
3217;SDS011;1621;49.702;8.618;2024-03-07T08:44:06;20.57;;;15.10;;
3217;SDS011;1621;49.702;8.618;2024-03-07T08:46:32;19.50;;;14.87;;
3217;SDS011;1621;49.702;8.618;2024-03-07T08:48:58;18.67;;;15.00;;
3217;SDS011;1621;49.702;8.618;2024-03-07T08:51:24;20.80;;;15.40;;
3217;SDS011;1621;49.702;8.618;2024-03-07T08:53:51;19.90;;;15.60;;
3217;SDS011;1621;49.702;8.618;2024-03-07T08:56:18;18.40;;;14.90;;
3217;SDS011;1621;49.702;8.618;2024-03-07T08:58:45;19.90;;;16.00;;
3217;SDS011;1621;49.702;8.618;2024-03-07T09:01:12;20.87;;;15.57;;
3217;SDS011;1621;49.702;8.618;2024-03-07T09:03:38;19.00;;;15.47;;
3217;SDS011;1621;49.702;8.618;2024-03-07T09:06:04;20.87;;;16.97;;
3217;SDS011;1621;49.702;8.618;2024-03-07T09:08:32;18.80;;;15.30;;
3217;SDS011;1621;49.702;8.618;2024-03-07T09:10:59;25.17;;;15.77;;
3217;SDS011;1621;49.702;8.618;2024-03-07T09:13:26;19.67;;;15.60;;
3217;SDS011;1621;49.702;8.618;2024-03-07T09:15:53;20.63;;;16.20;;
3217;SDS011;1621;49.702;8.618;2024-03-07T09:18:19;20.93;;;15.30;;
3217;SDS011;1621;49.702;8.618;2024-03-07T09:20:45;21.80;;;15.60;;
3217;SDS011;1621;49.702;8.618;2024-03-07T09:23:13;21.63;;;15.13;;
3217;SDS011;1621;49.702;8.618;2024-03-07T09:25:41;19.90;;;14.83;;
3217;SDS011;1621;49.702;8.618;2024-03-07T09:28:08;24.53;;;16.23;;
3217;SDS011;1621;49.702;8.618;2024-03-07T09:30:36;19.40;;;15.60;;
3217;SDS011;1621;49.702;8.618;2024-03-07T09:33:04;20.20;;;15.37;;
3217;SDS011;1621;49.702;8.618;2024-03-07T09:35:31;20.10;;;16.10;;
3217;SDS011;1621;49.702;8.618;2024-03-07T09:37:57;21.30;;;16.87;;
3217;SDS011;1621;49.702;8.618;2024-03-07T09:40:23;22.63;;;16.37;;
3217;SDS011;1621;49.702;8.618;2024-03-07T09:42:50;23.33;;;17.20;;
3217;SDS011;1621;49.702;8.618;2024-03-07T09:45:18;21.43;;;15.80;;
3217;SDS011;1621;49.702;8.618;2024-03-07T09:47:46;21.87;;;16.60;;
3217;SDS011;1621;49.702;8.618;2024-03-07T09:50:14;20.90;;;16.20;;
3217;SDS011;1621;49.702;8.618;2024-03-07T09:52:41;20.73;;;16.00;;
3217;SDS011;1621;49.702;8.618;2024-03-07T09:55:08;25.20;;;17.40;;
3217;SDS011;1621;49.702;8.618;2024-03-07T09:57:38;22.27;;;16.80;;
3217;SDS011;1621;49.702;8.618;2024-03-07T10:00:05;22.20;;;16.87;;
3217;SDS011;1621;49.702;8.618;2024-03-07T10:02:32;21.87;;;16.43;;
3217;SDS011;1621;49.702;8.618;2024-03-07T10:05:04;21.07;;;16.40;;
3217;SDS011;1621;49.702;8.618;2024-03-07T10:07:32;22.20;;;16.57;;
3217;SDS011;1621;49.702;8.618;2024-03-07T10:09:59;25.10;;;16.57;;
3217;SDS011;1621;49.702;8.618;2024-03-07T10:12:31;25.40;;;17.90;;
3217;SDS011;1621;49.702;8.618;2024-03-07T10:14:57;21.80;;;16.83;;
3217;SDS011;1621;49.702;8.618;2024-03-07T10:17:24;22.23;;;16.97;;
3217;SDS011;1621;49.702;8.618;2024-03-07T10:19:51;21.43;;;16.17;;
3217;SDS011;1621;49.702;8.618;2024-03-07T10:22:19;23.07;;;17.30;;
3217;SDS011;1621;49.702;8.618;2024-03-07T10:24:49;21.33;;;17.17;;
3217;SDS011;1621;49.702;8.618;2024-03-07T10:27:17;22.00;;;17.07;;
3217;SDS011;1621;49.702;8.618;2024-03-07T10:29:45;21.77;;;17.00;;
3217;SDS011;1621;49.702;8.618;2024-03-07T10:32:24;20.23;;;15.93;;
3217;SDS011;1621;49.702;8.618;2024-03-07T10:34:51;25.73;;;17.10;;
3217;SDS011;1621;49.702;8.618;2024-03-07T10:37:19;20.70;;;15.80;;
3217;SDS011;1621;49.702;8.618;2024-03-07T10:39:46;22.33;;;16.03;;
3217;SDS011;1621;49.702;8.618;2024-03-07T10:42:14;24.20;;;17.37;;
3217;SDS011;1621;49.702;8.618;2024-03-07T10:44:42;22.30;;;17.03;;
3217;SDS011;1621;49.702;8.618;2024-03-07T10:47:10;22.07;;;16.73;;
3217;SDS011;1621;49.702;8.618;2024-03-07T10:49:37;22.70;;;17.50;;
3217;SDS011;1621;49.702;8.618;2024-03-07T10:52:10;22.47;;;16.90;;
3217;SDS011;1621;49.702;8.618;2024-03-07T10:54:46;21.93;;;17.00;;
3217;SDS011;1621;49.702;8.618;2024-03-07T10:57:16;20.27;;;15.17;;
3217;SDS011;1621;49.702;8.618;2024-03-07T10:59:49;21.43;;;15.93;;
3217;SDS011;1621;49.702;8.618;2024-03-07T11:02:18;19.93;;;15.60;;
3217;SDS011;1621;49.702;8.618;2024-03-07T11:04:47;19.33;;;15.30;;
3217;SDS011;1621;49.702;8.618;2024-03-07T11:07:14;20.63;;;15.90;;
3217;SDS011;1621;49.702;8.618;2024-03-07T11:09:41;21.20;;;15.23;;
3217;SDS011;1621;49.702;8.618;2024-03-07T11:12:09;19.90;;;14.60;;
3217;SDS011;1621;49.702;8.618;2024-03-07T11:14:36;19.80;;;15.67;;
3217;SDS011;1621;49.702;8.618;2024-03-07T11:17:03;18.97;;;13.90;;
3217;SDS011;1621;49.702;8.618;2024-03-07T11:19:31;18.97;;;13.60;;
3217;SDS011;1621;49.702;8.618;2024-03-07T11:22:01;20.40;;;14.70;;
3217;SDS011;1621;49.702;8.618;2024-03-07T11:24:37;22.47;;;13.53;;
3217;SDS011;1621;49.702;8.618;2024-03-07T11:27:03;17.97;;;13.50;;
3217;SDS011;1621;49.702;8.618;2024-03-07T11:29:41;17.87;;;13.40;;
3217;SDS011;1621;49.702;8.618;2024-03-07T11:32:12;18.70;;;13.63;;
3217;SDS011;1621;49.702;8.618;2024-03-07T11:34:39;16.27;;;12.73;;
3217;SDS011;1621;49.702;8.618;2024-03-07T11:37:06;17.50;;;12.53;;
3217;SDS011;1621;49.702;8.618;2024-03-07T11:39:39;15.80;;;11.33;;
3217;SDS011;1621;49.702;8.618;2024-03-07T11:42:06;21.13;;;11.70;;
3217;SDS011;1621;49.702;8.618;2024-03-07T11:44:32;17.20;;;11.73;;
3217;SDS011;1621;49.702;8.618;2024-03-07T11:47:01;16.63;;;11.80;;
3217;SDS011;1621;49.702;8.618;2024-03-07T11:49:33;14.10;;;10.63;;
3217;SDS011;1621;49.702;8.618;2024-03-07T11:52:00;14.67;;;11.00;;
3217;SDS011;1621;49.702;8.618;2024-03-07T11:54:29;15.90;;;11.10;;
3217;SDS011;1621;49.702;8.618;2024-03-07T11:56:56;13.10;;;10.37;;
3217;SDS011;1621;49.702;8.618;2024-03-07T11:59:22;14.00;;;10.83;;
3217;SDS011;1621;49.702;8.618;2024-03-07T12:01:49;14.90;;;11.33;;
3217;SDS011;1621;49.702;8.618;2024-03-07T12:04:16;13.87;;;10.90;;
3217;SDS011;1621;49.702;8.618;2024-03-07T12:06:49;17.30;;;11.80;;
3217;SDS011;1621;49.702;8.618;2024-03-07T12:09:15;15.00;;;11.40;;
3217;SDS011;1621;49.702;8.618;2024-03-07T12:11:49;14.97;;;11.87;;
3217;SDS011;1621;49.702;8.618;2024-03-07T12:14:17;15.67;;;10.80;;
3217;SDS011;1621;49.702;8.618;2024-03-07T12:16:44;15.83;;;11.93;;
3217;SDS011;1621;49.702;8.618;2024-03-07T12:19:10;14.37;;;11.23;;
3217;SDS011;1621;49.702;8.618;2024-03-07T12:21:38;18.07;;;10.90;;
3217;SDS011;1621;49.702;8.618;2024-03-07T12:24:10;17.23;;;11.67;;
3217;SDS011;1621;49.702;8.618;2024-03-07T12:26:36;17.33;;;11.90;;
3217;SDS011;1621;49.702;8.618;2024-03-07T12:29:06;14.50;;;10.73;;
3217;SDS011;1621;49.702;8.618;2024-03-07T12:31:34;16.57;;;11.30;;
3217;SDS011;1621;49.702;8.618;2024-03-07T12:34:00;14.97;;;11.73;;
3217;SDS011;1621;49.702;8.618;2024-03-07T12:36:28;14.80;;;11.00;;
3217;SDS011;1621;49.702;8.618;2024-03-07T12:39:00;14.70;;;11.20;;
3217;SDS011;1621;49.702;8.618;2024-03-07T12:41:34;14.10;;;11.60;;
3217;SDS011;1621;49.702;8.618;2024-03-07T12:44:00;16.47;;;11.70;;
3217;SDS011;1621;49.702;8.618;2024-03-07T12:46:27;15.27;;;10.77;;
3217;SDS011;1621;49.702;8.618;2024-03-07T12:48:54;19.10;;;12.57;;
3217;SDS011;1621;49.702;8.618;2024-03-07T12:51:23;15.00;;;11.30;;
3217;SDS011;1621;49.702;8.618;2024-03-07T12:53:49;16.70;;;12.23;;
3217;SDS011;1621;49.702;8.618;2024-03-07T12:56:17;15.27;;;10.87;;
3217;SDS011;1621;49.702;8.618;2024-03-07T12:58:44;15.00;;;11.63;;
3217;SDS011;1621;49.702;8.618;2024-03-07T13:01:10;15.20;;;11.80;;
3217;SDS011;1621;49.702;8.618;2024-03-07T13:03:38;14.73;;;12.07;;
3217;SDS011;1621;49.702;8.618;2024-03-07T13:06:04;17.97;;;12.50;;
3217;SDS011;1621;49.702;8.618;2024-03-07T13:08:31;17.07;;;12.20;;
3217;SDS011;1621;49.702;8.618;2024-03-07T13:10:57;15.43;;;11.70;;
3217;SDS011;1621;49.702;8.618;2024-03-07T13:13:25;15.63;;;11.67;;
3217;SDS011;1621;49.702;8.618;2024-03-07T13:15:51;15.37;;;11.40;;
3217;SDS011;1621;49.702;8.618;2024-03-07T13:18:19;15.77;;;11.43;;
3217;SDS011;1621;49.702;8.618;2024-03-07T13:20:46;14.50;;;11.40;;
3217;SDS011;1621;49.702;8.618;2024-03-07T13:23:13;14.87;;;11.20;;
3217;SDS011;1621;49.702;8.618;2024-03-07T13:25:39;16.83;;;12.00;;
3217;SDS011;1621;49.702;8.618;2024-03-07T13:28:06;13.93;;;11.33;;
3217;SDS011;1621;49.702;8.618;2024-03-07T13:30:35;13.60;;;10.70;;
3217;SDS011;1621;49.702;8.618;2024-03-07T13:33:02;14.83;;;11.67;;
3217;SDS011;1621;49.702;8.618;2024-03-07T13:35:29;13.87;;;10.60;;
3217;SDS011;1621;49.702;8.618;2024-03-07T13:37:55;14.97;;;10.60;;
3217;SDS011;1621;49.702;8.618;2024-03-07T13:40:22;15.13;;;11.40;;
3217;SDS011;1621;49.702;8.618;2024-03-07T13:42:47;13.83;;;10.73;;
3217;SDS011;1621;49.702;8.618;2024-03-07T13:45:14;14.13;;;10.50;;
3217;SDS011;1621;49.702;8.618;2024-03-07T13:47:41;15.00;;;11.60;;
3217;SDS011;1621;49.702;8.618;2024-03-07T13:50:09;15.57;;;11.83;;
3217;SDS011;1621;49.702;8.618;2024-03-07T13:52:37;19.67;;;10.70;;
3217;SDS011;1621;49.702;8.618;2024-03-07T13:55:08;14.70;;;11.47;;
3217;SDS011;1621;49.702;8.618;2024-03-07T13:57:39;12.00;;;9.83;;
3217;SDS011;1621;49.702;8.618;2024-03-07T14:00:14;15.00;;;11.80;;
3217;SDS011;1621;49.702;8.618;2024-03-07T14:02:55;15.57;;;11.80;;
3217;SDS011;1621;49.702;8.618;2024-03-07T14:08:22;14.80;;;11.17;;
3217;SDS011;1621;49.702;8.618;2024-03-07T14:13:44;15.70;;;11.80;;
3217;SDS011;1621;49.702;8.618;2024-03-07T14:16:25;13.53;;;11.27;;
3217;SDS011;1621;49.702;8.618;2024-03-07T14:19:08;14.83;;;11.40;;
3217;SDS011;1621;49.702;8.618;2024-03-07T14:21:45;18.00;;;12.20;;
3217;SDS011;1621;49.702;8.618;2024-03-07T14:27:10;13.90;;;10.60;;
3217;SDS011;1621;49.702;8.618;2024-03-07T14:29:44;13.83;;;10.37;;
3217;SDS011;1621;49.702;8.618;2024-03-07T14:32:13;17.03;;;11.33;;
3217;SDS011;1621;49.702;8.618;2024-03-07T14:34:47;13.77;;;11.47;;
3217;SDS011;1621;49.702;8.618;2024-03-07T14:37:19;14.87;;;11.20;;
3217;SDS011;1621;49.702;8.618;2024-03-07T14:39:48;15.53;;;12.00;;
3217;SDS011;1621;49.702;8.618;2024-03-07T14:42:14;13.23;;;10.57;;
3217;SDS011;1621;49.702;8.618;2024-03-07T14:44:42;15.90;;;10.60;;
3217;SDS011;1621;49.702;8.618;2024-03-07T14:47:11;15.10;;;10.33;;
3217;SDS011;1621;49.702;8.618;2024-03-07T14:49:39;11.63;;;10.17;;
3217;SDS011;1621;49.702;8.618;2024-03-07T14:52:07;15.40;;;11.03;;
3217;SDS011;1621;49.702;8.618;2024-03-07T14:54:36;12.90;;;10.10;;
3217;SDS011;1621;49.702;8.618;2024-03-07T14:57:02;16.13;;;11.27;;
3217;SDS011;1621;49.702;8.618;2024-03-07T14:59:29;15.47;;;10.50;;